Hunt Field Lander US
ICAO: KLND
IATA: LND
Category: Medium
Scheduled Services: No

Elevation: 5586 ft
TransAlt. 18000 ft.

Airport Communications:
ASOS:118.15
CTAF/UNICOM:122.8

KLND Zoom In..

Runways:

(A) RW 03 length 5007 ft width 100 ft
---- / hdg 36

(B) RW 21 length 5007 ft width 100 ft
---- / hdg 216

Location; KLND
Day. 23 / Time. 14.53 Zulu
* Altimeter: 30.18
* Temperature: -11° c. -12.2°f.
* Wind from: 270° Speed 04 kn.
Dewpoint: -15° c.
Visibility: 10 Statute Miles.
Clouds: Clear (automated report).

KLND 231453Z AUTO 27004KT 10SM CLR M11/M15 A3018 RMK AO2 SLP297 T11061150 51008


Wind From 270°
Speed 04 kn.

YouTube Music Video
 
jpsmedia.com for Web Design  worldairports.se 2018   terms of use